createdAt,value
2022-10-27T00:01:07.389Z,9.28
2022-10-27T00:03:55.028Z,9.24
2022-10-27T00:06:44.082Z,9.27
2022-10-27T00:09:32.142Z,9.27
2022-10-27T00:12:19.541Z,9.26
2022-10-27T00:15:08.401Z,9.23
2022-10-27T00:17:55.706Z,9.18
2022-10-27T00:20:43.329Z,9.17
2022-10-27T00:23:32.498Z,9.12
2022-10-27T00:26:22.723Z,9.08
2022-10-27T00:29:10.193Z,9.08
2022-10-27T00:31:57.613Z,9.06
2022-10-27T00:34:45.335Z,9.07
2022-10-27T00:37:32.735Z,9.07
2022-10-27T00:40:23.036Z,9.05
2022-10-27T00:43:30.516Z,9.08
2022-10-27T00:46:31.413Z,9.04
2022-10-27T00:49:27.475Z,9.02
2022-10-27T00:52:27.323Z,8.99
2022-10-27T00:55:22.054Z,8.97
2022-10-27T00:58:16.671Z,8.89
2022-10-27T01:01:04.927Z,8.88
2022-10-27T01:03:52.790Z,8.87
2022-10-27T01:06:40.397Z,8.82
2022-10-27T01:09:28.511Z,8.78
2022-10-27T01:12:16.205Z,8.75
2022-10-27T01:15:07.499Z,8.72
2022-10-27T01:18:08.826Z,8.71
2022-10-27T01:21:53.019Z,8.70
2022-10-27T01:25:07.103Z,8.64
2022-10-27T01:28:44.680Z,8.60
2022-10-27T01:31:45.867Z,8.57
2022-10-27T01:34:45.988Z,8.55
2022-10-27T01:37:43.119Z,8.50
2022-10-27T01:40:38.537Z,8.47
2022-10-27T01:43:30.726Z,8.44
2022-10-27T01:46:20.157Z,8.40
2022-10-27T01:49:12.521Z,8.36
2022-10-27T01:52:06.915Z,8.33
2022-10-27T01:54:58.632Z,8.28
2022-10-27T01:58:21.275Z,8.25
2022-10-27T02:04:33.058Z,8.17
2022-10-27T02:07:33.773Z,8.14
2022-10-27T02:10:28.141Z,8.12
2022-10-27T02:13:15.889Z,8.08
2022-10-27T02:16:10.027Z,8.05
2022-10-27T02:19:06.799Z,8.02
2022-10-27T02:22:02.194Z,7.98
2022-10-27T02:24:51.340Z,7.96
2022-10-27T02:27:46.268Z,7.93
2022-10-27T02:30:36.116Z,7.90
2022-10-27T02:33:23.973Z,7.87
2022-10-27T02:36:11.781Z,7.85
2022-10-27T02:39:00.922Z,7.82
2022-10-27T02:41:48.792Z,7.80
2022-10-27T02:44:36.223Z,7.76
2022-10-27T02:47:23.646Z,7.75
2022-10-27T02:50:11.555Z,7.72
2022-10-27T02:52:58.942Z,7.70
2022-10-27T02:55:47.673Z,7.69
2022-10-27T02:58:35.426Z,7.66
2022-10-27T03:01:23.141Z,7.61
2022-10-27T03:04:11.023Z,7.58
2022-10-27T03:06:58.487Z,7.57
2022-10-27T03:09:45.863Z,7.54
2022-10-27T03:12:35.057Z,7.51
2022-10-27T03:15:22.836Z,7.49
2022-10-27T03:18:10.348Z,7.46
2022-10-27T03:20:57.757Z,7.45
2022-10-27T03:23:45.277Z,7.43
2022-10-27T03:26:32.744Z,7.42
2022-10-27T03:29:21.508Z,7.38
2022-10-27T03:32:09.157Z,7.35
2022-10-27T03:34:56.560Z,7.35
2022-10-27T03:37:44.650Z,7.31
2022-10-27T03:40:32.295Z,7.29
2022-10-27T03:43:19.591Z,7.28
2022-10-27T03:46:09.930Z,7.25
2022-10-27T03:48:57.533Z,7.23
2022-10-27T03:51:44.991Z,7.19
2022-10-27T03:54:33.317Z,7.19
2022-10-27T03:57:20.901Z,7.18
2022-10-27T04:00:10.848Z,7.15
2022-10-27T04:02:59.853Z,7.14
2022-10-27T04:05:51.404Z,7.11
2022-10-27T04:08:38.995Z,7.11
2022-10-27T04:11:26.655Z,7.10
2022-10-27T04:14:14.403Z,7.07
2022-10-27T04:17:02.080Z,7.07
2022-10-27T04:19:50.925Z,7.03
2022-10-27T04:22:38.528Z,7.02
2022-10-27T04:25:27.425Z,7.02
2022-10-27T04:28:15.809Z,7.01
2022-10-27T04:31:03.260Z,7.00
2022-10-27T04:33:51.194Z,6.98
2022-10-27T04:36:40.008Z,6.96
2022-10-27T04:39:27.687Z,6.93
2022-10-27T04:42:15.184Z,6.91
2022-10-27T04:45:02.968Z,6.91
2022-10-27T04:47:51.235Z,6.89
2022-10-27T04:50:39.105Z,6.87
2022-10-27T04:53:28.079Z,6.85
2022-10-27T04:56:15.476Z,6.83
2022-10-27T04:59:03.075Z,6.83
2022-10-27T05:01:51.022Z,6.81
2022-10-27T05:04:38.784Z,6.78
2022-10-27T05:07:26.299Z,6.78
2022-10-27T05:10:15.595Z,6.76
2022-10-27T05:13:03.705Z,6.74
2022-10-27T05:15:51.113Z,6.71
2022-10-27T05:18:38.536Z,6.70
2022-10-27T05:21:26.064Z,6.68
2022-10-27T05:24:13.757Z,6.65
2022-10-27T05:27:02.539Z,6.63
2022-10-27T05:29:50.115Z,6.64
2022-10-27T05:32:40.949Z,6.63
2022-10-27T05:35:30.663Z,6.60
2022-10-27T05:38:18.568Z,6.58
2022-10-27T05:41:07.224Z,6.57
2022-10-27T05:43:56.150Z,6.54
2022-10-27T05:46:43.747Z,6.52
2022-10-27T05:49:31.262Z,6.53
2022-10-27T05:52:18.575Z,6.50
2022-10-27T05:55:07.361Z,6.48
2022-10-27T05:57:56.240Z,6.48
2022-10-27T06:00:45.411Z,6.45
2022-10-27T06:03:33.016Z,6.45
2022-10-27T06:06:20.350Z,6.42
2022-10-27T06:09:07.711Z,6.40
2022-10-27T06:11:55.207Z,6.40
2022-10-27T06:14:42.704Z,6.37
2022-10-27T06:17:31.592Z,6.37
2022-10-27T06:20:19.056Z,6.36
2022-10-27T06:23:06.515Z,6.35
2022-10-27T06:25:56.246Z,6.34
2022-10-27T06:28:43.858Z,6.34
2022-10-27T06:31:31.258Z,6.33
2022-10-27T06:34:20.058Z,6.33
2022-10-27T06:37:07.833Z,6.32
2022-10-27T06:39:55.898Z,6.32
2022-10-27T06:42:49.159Z,6.34
2022-10-27T06:45:47.959Z,6.37
2022-10-27T06:48:35.556Z,6.36
2022-10-27T06:51:24.478Z,6.39
2022-10-27T06:54:13.198Z,6.42
2022-10-27T06:57:01.190Z,6.47
2022-10-27T06:59:49.021Z,6.47
2022-10-27T07:02:36.387Z,6.50
2022-10-27T07:05:23.873Z,6.56
2022-10-27T07:08:12.991Z,6.74
2022-10-27T07:11:00.489Z,6.92
2022-10-27T07:13:48.432Z,6.94
2022-10-27T07:16:36.077Z,7.06
2022-10-27T07:19:23.583Z,7.11
2022-10-27T07:22:11.041Z,7.20
2022-10-27T07:24:59.746Z,7.47
2022-10-27T07:27:54.108Z,7.63
2022-10-27T07:30:44.316Z,8.22
2022-10-27T07:33:31.707Z,8.37
2022-10-27T07:36:19.065Z,8.59
2022-10-27T07:39:07.183Z,8.78
2022-10-27T07:41:56.116Z,8.92
2022-10-27T07:44:43.866Z,8.92
2022-10-27T07:47:31.440Z,9.35
2022-10-27T07:50:21.607Z,9.36
2022-10-27T07:53:12.929Z,9.45
2022-10-27T07:56:00.676Z,9.69
2022-10-27T07:58:51.419Z,9.76
2022-10-27T08:01:39.181Z,9.77
2022-10-27T08:04:26.738Z,9.89
2022-10-27T08:07:14.166Z,10.05
2022-10-27T08:10:01.945Z,10.25
2022-10-27T08:12:49.577Z,10.35
2022-10-27T08:15:41.336Z,10.41
2022-10-27T08:18:29.196Z,10.56
2022-10-27T08:21:16.572Z,10.78
2022-10-27T08:24:04.198Z,10.94
2022-10-27T08:26:51.873Z,11.04
2022-10-27T08:29:39.485Z,11.22
2022-10-27T08:32:28.446Z,11.40
2022-10-27T08:35:16.207Z,11.56
2022-10-27T08:38:06.572Z,11.68
2022-10-27T08:41:09.826Z,11.90
2022-10-27T08:44:23.307Z,11.93
2022-10-27T08:47:16.246Z,12.07
2022-10-27T08:50:13.802Z,12.26
2022-10-27T08:53:06.060Z,12.36
2022-10-27T08:56:00.406Z,12.43
2022-10-27T08:58:49.768Z,12.50
2022-10-27T09:01:49.522Z,12.87
2022-10-27T09:04:58.182Z,13.02
2022-10-27T09:08:02.095Z,13.11
2022-10-27T09:11:00.677Z,13.17
2022-10-27T09:14:10.370Z,13.41
2022-10-27T09:17:05.040Z,13.46
2022-10-27T09:20:01.377Z,13.67
2022-10-27T09:22:55.646Z,13.88
2022-10-27T09:25:44.908Z,14.05
2022-10-27T09:28:38.964Z,14.19
2022-10-27T09:31:35.597Z,14.36
2022-10-27T09:34:28.036Z,14.46
2022-10-27T09:37:17.938Z,14.87
2022-10-27T09:40:12.957Z,15.07
2022-10-27T09:43:03.920Z,15.26
2022-10-27T09:45:58.971Z,15.43
2022-10-27T09:48:46.851Z,15.62
2022-10-27T09:51:46.435Z,15.79
2022-10-27T09:54:39.144Z,15.89
2022-10-27T09:57:38.113Z,16.09
2022-10-27T10:00:28.934Z,16.19
2022-10-27T10:03:21.843Z,16.37
2022-10-27T10:06:29.624Z,16.46
2022-10-27T10:09:24.148Z,16.68
2022-10-27T10:12:24.472Z,16.73
2022-10-27T10:15:22.273Z,16.89
2022-10-27T10:18:26.690Z,17.05
2022-10-27T10:21:15.809Z,17.18
2022-10-27T10:24:03.420Z,17.30
2022-10-27T10:26:55.418Z,17.50
2022-10-27T10:29:50.727Z,17.54
2022-10-27T10:32:53.211Z,17.75
2022-10-27T10:35:48.407Z,17.92
2022-10-27T10:38:37.392Z,18.02
2022-10-27T10:41:26.295Z,18.18
2022-10-27T10:44:16.849Z,18.35
2022-10-27T10:47:07.567Z,18.50
2022-10-27T10:50:01.786Z,18.65
2022-10-27T10:52:54.557Z,18.72
2022-10-27T10:55:42.788Z,18.81
2022-10-27T10:58:34.873Z,18.97
2022-10-27T11:01:26.732Z,19.12
2022-10-27T11:04:21.464Z,19.23
2022-10-27T11:07:27.513Z,19.38
2022-10-27T11:10:19.561Z,19.54
2022-10-27T11:13:17.041Z,19.66
2022-10-27T11:16:10.086Z,19.81
2022-10-27T11:19:03.306Z,19.96
2022-10-27T11:21:59.564Z,20.22
2022-10-27T11:24:56.951Z,20.18
2022-10-27T11:27:57.348Z,20.18
2022-10-27T11:30:55.612Z,20.21
2022-10-27T11:33:54.960Z,20.44
2022-10-27T11:36:48.707Z,20.45
2022-10-27T11:39:47.804Z,20.74
2022-10-27T11:42:47.250Z,20.88
2022-10-27T11:45:44.597Z,20.79
2022-10-27T11:48:41.038Z,20.74
2022-10-27T11:51:35.963Z,21.07
2022-10-27T11:54:23.835Z,21.19
2022-10-27T11:57:39.988Z,21.24
2022-10-27T12:00:34.689Z,21.48
2022-10-27T12:04:09.167Z,21.43
2022-10-27T12:07:13.161Z,21.33
2022-10-27T12:10:20.721Z,21.21
2022-10-27T12:13:15.232Z,21.28
2022-10-27T12:16:12.055Z,21.32
2022-10-27T12:19:10.683Z,21.07
2022-10-27T12:22:08.154Z,21.24
2022-10-27T12:25:04.491Z,21.54
2022-10-27T12:27:58.231Z,21.53
2022-10-27T12:30:49.723Z,21.46
2022-10-27T12:33:46.498Z,21.63
2022-10-27T12:36:47.497Z,21.69
2022-10-27T12:39:49.022Z,21.38
2022-10-27T12:42:49.677Z,21.40
2022-10-27T12:46:21.328Z,21.68
2022-10-27T12:49:25.739Z,21.75
2022-10-27T12:52:23.162Z,21.74
2022-10-27T12:55:37.276Z,21.84
2022-10-27T12:58:40.391Z,21.97
2022-10-27T13:01:41.421Z,22.22
2022-10-27T13:05:25.754Z,22.03
2022-10-27T13:09:04.236Z,21.82
2022-10-27T13:12:31.756Z,21.70
2022-10-27T13:16:01.190Z,21.63
2022-10-27T13:19:08.492Z,21.63
2022-10-27T13:22:12.526Z,21.87
2022-10-27T13:25:14.765Z,21.69
2022-10-27T13:28:15.318Z,21.74
2022-10-27T13:31:20.988Z,22.10
2022-10-27T13:34:24.452Z,22.05
2022-10-27T13:37:44.620Z,21.92
2022-10-27T13:40:40.335Z,21.83
2022-10-27T13:43:49.062Z,21.66
2022-10-27T13:47:15.127Z,21.62
2022-10-27T13:50:03.670Z,21.38
2022-10-27T13:53:34.650Z,21.42
2022-10-27T13:56:41.019Z,21.38
2022-10-27T14:02:39.779Z,21.21
2022-10-27T14:05:33.845Z,21.04
2022-10-27T14:08:28.301Z,20.93
2022-10-27T14:11:22.280Z,20.91
2022-10-27T14:14:24.982Z,20.74
2022-10-27T14:17:17.847Z,20.59
2022-10-27T14:20:16.913Z,20.59
2022-10-27T14:23:11.951Z,20.50
2022-10-27T14:26:24.710Z,20.47
2022-10-27T14:29:23.653Z,20.42
2022-10-27T14:32:15.403Z,20.30
2022-10-27T14:35:22.001Z,20.26
2022-10-27T14:38:17.406Z,20.32
2022-10-27T14:41:16.839Z,20.25
2022-10-27T14:44:09.317Z,20.13
2022-10-27T14:47:01.849Z,20.23
2022-10-27T14:49:52.129Z,20.18
2022-10-27T14:52:47.877Z,20.22
2022-10-27T14:55:38.081Z,20.12
2022-10-27T14:58:26.942Z,20.05
2022-10-27T15:01:27.446Z,19.94
2022-10-27T15:04:22.796Z,19.98
2022-10-27T15:07:17.791Z,19.86
2022-10-27T15:10:07.008Z,19.94
2022-10-27T15:12:59.076Z,19.95
2022-10-27T15:15:51.004Z,20.01
2022-10-27T15:18:43.491Z,20.07
2022-10-27T15:21:31.391Z,20.05
2022-10-27T15:24:24.887Z,19.96
2022-10-27T15:27:14.153Z,19.83
2022-10-27T15:30:03.117Z,19.70
2022-10-27T15:32:56.860Z,19.58
2022-10-27T15:35:44.531Z,19.51
2022-10-27T15:38:32.638Z,19.46
2022-10-27T15:41:23.722Z,19.42
2022-10-27T15:44:22.659Z,19.36
2022-10-27T15:47:42.870Z,19.28
2022-10-27T15:50:37.743Z,19.17
2022-10-27T15:53:26.066Z,19.05
2022-10-27T15:56:36.551Z,18.95
2022-10-27T15:59:27.099Z,18.80
2022-10-27T16:02:36.268Z,18.67
2022-10-27T16:05:45.187Z,18.46
2022-10-27T16:08:42.019Z,18.35
2022-10-27T16:11:36.158Z,18.14
2022-10-27T16:14:24.178Z,18.02
2022-10-27T16:17:15.230Z,17.86
2022-10-27T16:20:16.581Z,17.76
2022-10-27T16:23:12.734Z,17.59
2022-10-27T16:26:00.891Z,17.44
2022-10-27T16:28:48.941Z,17.33
2022-10-27T16:31:36.679Z,17.22
2022-10-27T16:34:27.909Z,17.02
2022-10-27T16:37:25.122Z,16.82
2022-10-27T16:40:16.515Z,16.60
2022-10-27T16:43:04.325Z,16.49
2022-10-27T16:45:52.045Z,16.38
2022-10-27T16:48:39.596Z,16.29
2022-10-27T16:51:27.819Z,16.23
2022-10-27T16:54:15.529Z,16.16
2022-10-27T16:57:05.241Z,16.12
2022-10-27T16:59:52.916Z,16.10
2022-10-27T17:02:40.611Z,16.04
2022-10-27T17:05:27.895Z,15.99
2022-10-27T17:08:15.540Z,15.97
2022-10-27T17:11:08.192Z,15.92
2022-10-27T17:13:57.202Z,15.90
2022-10-27T17:16:44.691Z,15.84
2022-10-27T17:19:32.214Z,15.78
2022-10-27T17:22:19.731Z,15.68
2022-10-27T17:25:07.932Z,15.61
2022-10-27T17:27:55.753Z,15.54
2022-10-27T17:30:45.107Z,15.47
2022-10-27T17:33:33.801Z,15.39
2022-10-27T17:36:21.268Z,15.33
2022-10-27T17:39:09.330Z,15.27
2022-10-27T17:41:57.063Z,15.20
2022-10-27T17:44:44.432Z,15.13
2022-10-27T17:47:35.115Z,15.05
2022-10-27T17:50:22.713Z,14.98
2022-10-27T17:53:12.039Z,14.92
2022-10-27T17:56:00.886Z,14.86
2022-10-27T17:58:50.084Z,14.79
2022-10-27T18:01:39.386Z,14.71
2022-10-27T18:04:28.927Z,14.64
2022-10-27T18:07:16.400Z,14.56
2022-10-27T18:10:04.157Z,14.49
2022-10-27T18:12:52.874Z,14.40
2022-10-27T18:15:40.858Z,14.33
2022-10-27T18:18:29.253Z,14.26
2022-10-27T18:21:18.618Z,14.20
2022-10-27T18:24:08.689Z,14.14
2022-10-27T18:26:56.858Z,14.07
2022-10-27T18:29:44.987Z,14.00
2022-10-27T18:32:32.540Z,13.93
2022-10-27T18:35:20.127Z,13.87
2022-10-27T18:38:09.002Z,13.82
2022-10-27T18:40:58.838Z,13.75
2022-10-27T18:43:48.984Z,13.70
2022-10-27T18:46:38.596Z,13.64
2022-10-27T18:49:43.517Z,13.61
2022-10-27T18:52:34.223Z,13.54
2022-10-27T18:55:23.040Z,13.47
2022-10-27T18:58:10.464Z,13.42
2022-10-27T19:01:04.263Z,13.34
2022-10-27T19:03:55.100Z,13.31
2022-10-27T19:06:42.879Z,13.24
2022-10-27T19:09:30.330Z,13.16
2022-10-27T19:12:19.302Z,13.14
2022-10-27T19:15:07.928Z,13.08
2022-10-27T19:17:55.762Z,13.04
2022-10-27T19:20:44.633Z,12.99
2022-10-27T19:23:33.125Z,12.93
2022-10-27T19:26:23.480Z,12.90
2022-10-27T19:29:13.660Z,12.85
2022-10-27T19:32:02.935Z,12.79
2022-10-27T19:34:50.629Z,12.73
2022-10-27T19:37:38.879Z,12.68
2022-10-27T19:40:28.310Z,12.63
2022-10-27T19:43:15.865Z,12.59
2022-10-27T19:46:05.197Z,12.56
2022-10-27T19:48:55.256Z,12.53
2022-10-27T19:51:43.147Z,12.50
2022-10-27T19:54:31.360Z,12.46
2022-10-27T19:57:18.741Z,12.44
2022-10-27T20:00:08.294Z,12.43
2022-10-27T20:02:57.677Z,12.42
2022-10-27T20:05:54.124Z,12.37
2022-10-27T20:08:45.139Z,12.36
2022-10-27T20:11:35.073Z,12.35
2022-10-27T20:14:24.456Z,12.33
2022-10-27T20:17:14.821Z,12.31
2022-10-27T20:20:03.944Z,12.29
2022-10-27T20:22:51.532Z,12.28
2022-10-27T20:25:39.292Z,12.26
2022-10-27T20:28:27.731Z,12.21
2022-10-27T20:31:15.587Z,12.19
2022-10-27T20:34:04.477Z,12.16
2022-10-27T20:36:55.053Z,12.16
2022-10-27T20:39:43.029Z,12.13
2022-10-27T20:42:31.760Z,12.09
2022-10-27T20:45:20.119Z,12.07
2022-10-27T20:48:08.335Z,12.03
2022-10-27T20:51:01.207Z,11.97
2022-10-27T20:53:51.372Z,11.93
2022-10-27T20:56:39.024Z,11.88
2022-10-27T20:59:26.693Z,11.85
2022-10-27T21:02:14.468Z,11.78
2022-10-27T21:05:02.358Z,11.77
2022-10-27T21:07:50.432Z,11.72
2022-10-27T21:10:42.386Z,11.69
2022-10-27T21:13:30.176Z,11.66
2022-10-27T21:16:18.219Z,11.63
2022-10-27T21:19:09.147Z,11.59
2022-10-27T21:21:56.791Z,11.55
2022-10-27T21:24:44.185Z,11.51
2022-10-27T21:27:36.069Z,11.47
2022-10-27T21:33:13.092Z,11.40
2022-10-27T21:36:00.548Z,11.35
2022-10-27T21:38:51.028Z,11.33
2022-10-27T21:41:39.667Z,11.32
2022-10-27T21:44:28.751Z,11.30
2022-10-27T21:47:16.399Z,11.27
2022-10-27T21:50:04.018Z,11.23
2022-10-27T21:52:53.732Z,11.19
2022-10-27T21:55:41.392Z,11.14
2022-10-27T21:58:31.922Z,11.14
2022-10-27T22:01:23.034Z,11.11
2022-10-27T22:04:11.104Z,11.07
2022-10-27T22:06:58.600Z,11.04
2022-10-27T22:09:46.540Z,11.02
2022-10-27T22:12:34.299Z,10.97
2022-10-27T22:15:22.062Z,10.94
2022-10-27T22:18:11.089Z,10.87
2022-10-27T22:20:59.141Z,10.89
2022-10-27T22:23:46.775Z,10.85
2022-10-27T22:26:35.226Z,10.81
2022-10-27T22:29:22.834Z,10.80
2022-10-27T22:32:11.441Z,10.79
2022-10-27T22:35:00.891Z,10.75
2022-10-27T22:37:48.336Z,10.72
2022-10-27T22:40:35.905Z,10.68
2022-10-27T22:43:23.310Z,10.66
2022-10-27T22:46:17.512Z,10.61
2022-10-27T22:49:05.608Z,10.57
2022-10-27T22:51:54.520Z,10.56
2022-10-27T22:54:42.616Z,10.53
2022-10-27T22:57:30.722Z,10.50
2022-10-27T23:00:18.971Z,10.49
2022-10-27T23:03:06.608Z,10.46
2022-10-27T23:05:54.125Z,10.43
2022-10-27T23:08:43.197Z,10.40
2022-10-27T23:11:34.830Z,10.37
2022-10-27T23:14:23.116Z,10.34
2022-10-27T23:17:11.652Z,10.32
2022-10-27T23:19:59.355Z,10.30
2022-10-27T23:22:48.773Z,10.27
2022-10-27T23:25:39.014Z,10.25
2022-10-27T23:28:27.197Z,10.23
2022-10-27T23:31:14.574Z,10.21
2022-10-27T23:34:05.033Z,10.20
2022-10-27T23:36:52.523Z,10.21
2022-10-27T23:39:39.893Z,10.24
2022-10-27T23:42:28.699Z,10.16
2022-10-27T23:45:16.608Z,10.14
2022-10-27T23:48:04.238Z,10.12
2022-10-27T23:50:51.510Z,10.13
2022-10-27T23:53:40.429Z,10.12
2022-10-27T23:56:28.255Z,10.09
2022-10-27T23:59:17.222Z,10.09
